createdAt,value
2022-11-15T00:00:33.492Z,17.50
2022-11-15T00:03:00.550Z,17.07
2022-11-15T00:05:27.694Z,16.70
2022-11-15T00:07:56.182Z,17.83
2022-11-15T00:10:23.530Z,17.00
2022-11-15T00:12:50.581Z,16.63
2022-11-15T00:15:17.778Z,17.37
2022-11-15T00:17:44.859Z,17.23
2022-11-15T00:20:12.459Z,17.10
2022-11-15T00:22:39.557Z,17.77
2022-11-15T00:25:06.921Z,17.93
2022-11-15T00:27:34.086Z,16.83
2022-11-15T00:30:01.152Z,16.20
2022-11-15T00:32:28.222Z,17.30
2022-11-15T00:34:55.264Z,16.13
2022-11-15T00:37:22.331Z,16.83
2022-11-15T00:39:49.373Z,16.83
2022-11-15T00:42:16.677Z,17.57
2022-11-15T00:44:43.736Z,17.90
2022-11-15T00:47:10.776Z,18.33
2022-11-15T00:49:37.820Z,16.90
2022-11-15T00:52:04.954Z,18.73
2022-11-15T00:54:31.991Z,18.33
2022-11-15T00:56:59.023Z,18.40
2022-11-15T00:59:26.092Z,17.57
2022-11-15T01:01:53.167Z,17.97
2022-11-15T01:04:20.242Z,18.40
2022-11-15T01:06:47.368Z,17.97
2022-11-15T01:09:14.779Z,18.83
2022-11-15T01:11:41.905Z,18.33
2022-11-15T01:14:09.056Z,18.67
2022-11-15T01:16:36.150Z,17.73
2022-11-15T01:19:03.228Z,17.97
2022-11-15T01:21:30.380Z,17.90
2022-11-15T01:23:58.265Z,18.17
2022-11-15T01:26:26.093Z,17.90
2022-11-15T01:28:53.336Z,17.17
2022-11-15T01:31:21.304Z,17.07
2022-11-15T01:33:48.869Z,17.77
2022-11-15T01:36:17.241Z,17.73
2022-11-15T01:38:44.367Z,17.93
2022-11-15T01:41:21.692Z,17.07
2022-11-15T01:43:50.808Z,17.57
2022-11-15T01:46:20.658Z,17.47
2022-11-15T01:48:47.720Z,17.27
2022-11-15T01:51:17.777Z,17.37
2022-11-15T01:53:47.162Z,17.07
2022-11-15T01:56:16.528Z,17.93
2022-11-15T01:58:45.229Z,16.50
2022-11-15T02:01:13.048Z,17.03
2022-11-15T02:03:50.254Z,18.10
2022-11-15T02:06:17.342Z,17.20
2022-11-15T02:08:44.931Z,18.33
2022-11-15T02:11:12.032Z,17.53
2022-11-15T02:13:39.250Z,17.00
2022-11-15T02:16:13.817Z,17.33
2022-11-15T02:18:46.539Z,16.33
2022-11-15T02:21:24.091Z,17.20
2022-11-15T02:24:09.849Z,17.43
2022-11-15T02:26:39.875Z,16.40
2022-11-15T02:29:12.123Z,17.20
2022-11-15T02:31:58.094Z,16.40
2022-11-15T02:34:25.138Z,14.50
2022-11-15T02:37:10.743Z,16.33
2022-11-15T02:39:37.824Z,15.47
2022-11-15T02:42:33.106Z,16.17
2022-11-15T02:45:03.069Z,15.57
2022-11-15T02:47:31.832Z,16.13
2022-11-15T02:50:00.474Z,15.50
2022-11-15T02:52:27.841Z,16.10
2022-11-15T02:54:56.138Z,16.57
2022-11-15T02:57:43.441Z,14.97
2022-11-15T03:00:11.745Z,16.13
2022-11-15T03:02:54.246Z,15.43
2022-11-15T03:05:53.552Z,15.90
2022-11-15T03:08:26.469Z,14.93
2022-11-15T03:11:09.058Z,15.43
2022-11-15T03:13:42.105Z,14.83
2022-11-15T03:16:16.840Z,15.00
2022-11-15T03:18:45.471Z,14.30
2022-11-15T03:21:13.476Z,15.47
2022-11-15T03:23:41.101Z,14.67
2022-11-15T03:26:13.433Z,14.47
2022-11-15T03:28:44.382Z,15.27
2022-11-15T03:31:32.299Z,13.97
2022-11-15T03:34:00.712Z,14.17
2022-11-15T03:36:28.666Z,13.90
2022-11-15T03:38:56.835Z,14.53
2022-11-15T03:41:30.740Z,14.80
2022-11-15T03:44:03.885Z,13.37
2022-11-15T03:46:34.569Z,14.17
2022-11-15T03:49:10.996Z,13.20
2022-11-15T03:51:38.163Z,14.17
2022-11-15T03:54:05.902Z,14.43
2022-11-15T03:56:32.980Z,14.63
2022-11-15T03:59:00.106Z,13.17
2022-11-15T04:01:27.362Z,14.27
2022-11-15T04:03:54.453Z,14.33
2022-11-15T04:06:21.559Z,14.10
2022-11-15T04:08:48.655Z,13.93
2022-11-15T04:11:15.743Z,13.60
2022-11-15T04:13:42.798Z,13.70
2022-11-15T04:16:09.855Z,13.23
2022-11-15T04:18:36.901Z,13.87
2022-11-15T04:21:22.945Z,13.20
2022-11-15T04:24:05.366Z,12.63
2022-11-15T04:26:32.477Z,12.80
2022-11-15T04:29:18.296Z,12.80
2022-11-15T04:31:45.367Z,12.20
2022-11-15T04:34:12.435Z,13.13
2022-11-15T04:36:58.346Z,12.17
2022-11-15T04:39:25.406Z,12.73
2022-11-15T04:41:52.446Z,12.03
2022-11-15T04:44:19.486Z,13.23
2022-11-15T04:46:46.525Z,12.97
2022-11-15T04:49:13.577Z,12.47
2022-11-15T04:51:40.623Z,13.03
2022-11-15T04:54:07.832Z,12.77
2022-11-15T04:56:34.932Z,12.87
2022-11-15T04:59:01.979Z,12.37
2022-11-15T05:01:29.132Z,12.10
2022-11-15T05:04:15.226Z,12.40
2022-11-15T05:06:42.333Z,12.20
2022-11-15T05:09:09.530Z,12.33
2022-11-15T05:11:36.630Z,12.00
2022-11-15T05:14:03.716Z,12.50
2022-11-15T05:16:30.783Z,12.80
2022-11-15T05:18:57.864Z,13.07
2022-11-15T05:21:24.912Z,11.77
2022-11-15T05:23:52.119Z,11.90
2022-11-15T05:26:19.733Z,12.80
2022-11-15T05:28:46.832Z,11.90
2022-11-15T05:31:15.155Z,12.47
2022-11-15T05:33:42.798Z,12.47
2022-11-15T05:36:22.169Z,12.20
2022-11-15T05:38:49.696Z,12.07
2022-11-15T05:41:17.380Z,12.67
2022-11-15T05:43:45.394Z,12.43
2022-11-15T05:46:13.607Z,12.00
2022-11-15T05:48:41.972Z,11.70
2022-11-15T05:51:09.269Z,12.20
2022-11-15T05:53:37.305Z,12.37
2022-11-15T05:56:05.171Z,12.07
2022-11-15T05:58:33.371Z,12.57
2022-11-15T06:01:01.277Z,11.77
2022-11-15T06:03:28.432Z,11.80
2022-11-15T06:05:55.577Z,11.83
2022-11-15T06:08:22.627Z,11.80
2022-11-15T06:10:49.718Z,13.10
2022-11-15T06:13:16.818Z,12.67
2022-11-15T06:15:43.847Z,12.80
2022-11-15T06:18:11.047Z,12.33
2022-11-15T06:20:38.092Z,12.80
2022-11-15T06:23:05.837Z,12.00
2022-11-15T06:25:33.113Z,11.90
2022-11-15T06:28:00.481Z,11.20
2022-11-15T06:30:28.380Z,11.33
2022-11-15T06:33:05.656Z,12.10
2022-11-15T06:35:34.884Z,11.43
2022-11-15T06:38:09.525Z,11.70
2022-11-15T06:40:37.634Z,11.30
2022-11-15T06:43:05.322Z,11.90
2022-11-15T06:45:32.624Z,11.17
2022-11-15T06:47:59.892Z,11.93
2022-11-15T06:50:27.010Z,11.63
2022-11-15T06:52:54.169Z,11.80
2022-11-15T06:55:21.238Z,11.53
2022-11-15T06:57:51.819Z,11.43
2022-11-15T07:00:19.843Z,11.67
2022-11-15T07:02:47.413Z,10.83
2022-11-15T07:05:14.908Z,11.50
2022-11-15T07:07:45.818Z,11.50
2022-11-15T07:10:12.931Z,11.20
2022-11-15T07:12:40.008Z,11.57
2022-11-15T07:15:07.512Z,12.33
2022-11-15T07:17:34.610Z,11.43
2022-11-15T07:20:01.698Z,12.20
2022-11-15T07:22:28.868Z,11.20
2022-11-15T07:24:55.958Z,11.93
2022-11-15T07:27:23.180Z,11.20
2022-11-15T07:29:50.413Z,11.20
2022-11-15T07:32:17.527Z,11.83
2022-11-15T07:34:46.104Z,11.80
2022-11-15T07:37:13.525Z,12.47
2022-11-15T07:39:40.596Z,12.43
2022-11-15T07:42:26.273Z,12.03
2022-11-15T07:44:53.364Z,12.07
2022-11-15T07:47:20.499Z,12.37
2022-11-15T07:49:47.663Z,12.03
2022-11-15T07:52:15.261Z,11.00
2022-11-15T07:54:42.405Z,12.07
2022-11-15T07:57:10.755Z,12.07
2022-11-15T07:59:37.836Z,11.93
2022-11-15T08:02:05.008Z,12.23
2022-11-15T08:04:32.179Z,11.90
2022-11-15T08:06:59.930Z,11.80
2022-11-15T08:09:28.125Z,11.83
2022-11-15T08:11:55.187Z,12.03
2022-11-15T08:14:22.974Z,12.50
2022-11-15T08:16:50.106Z,11.20
2022-11-15T08:19:17.161Z,11.37
2022-11-15T08:21:44.271Z,10.97
2022-11-15T08:24:11.998Z,10.27
2022-11-15T08:26:39.489Z,10.37
2022-11-15T08:29:06.898Z,10.30
2022-11-15T08:31:34.030Z,10.57
2022-11-15T08:34:01.729Z,9.73
2022-11-15T08:36:32.105Z,11.07
2022-11-15T08:39:04.141Z,10.37
2022-11-15T08:41:36.207Z,9.50
2022-11-15T08:44:03.441Z,11.40
2022-11-15T08:46:30.591Z,10.67
2022-11-15T08:48:57.681Z,11.37
2022-11-15T08:51:24.740Z,11.07
2022-11-15T08:53:51.819Z,11.20
2022-11-15T08:56:18.886Z,11.40
2022-11-15T08:58:45.991Z,11.23
2022-11-15T09:01:18.636Z,11.43
2022-11-15T09:03:46.029Z,11.50
2022-11-15T09:06:13.663Z,11.07
2022-11-15T09:08:47.357Z,11.47
2022-11-15T09:11:15.521Z,10.33
2022-11-15T09:13:42.632Z,10.80
2022-11-15T09:16:09.771Z,10.40
2022-11-15T09:18:36.834Z,11.60
2022-11-15T09:21:04.518Z,10.93
2022-11-15T09:23:31.873Z,11.00
2022-11-15T09:26:03.498Z,11.03
2022-11-15T09:28:31.472Z,11.00
2022-11-15T09:31:02.395Z,10.67
2022-11-15T09:33:30.018Z,11.77
2022-11-15T09:36:09.797Z,11.10
2022-11-15T09:38:37.307Z,10.40
2022-11-15T09:41:14.745Z,11.07
2022-11-15T09:43:50.986Z,11.03
2022-11-15T09:46:23.942Z,10.77
2022-11-15T09:48:56.110Z,10.50
2022-11-15T09:51:37.360Z,10.47
2022-11-15T09:56:54.667Z,10.13
2022-11-15T09:59:21.722Z,11.40
2022-11-15T10:01:48.979Z,9.90
2022-11-15T10:04:16.492Z,10.80
2022-11-15T10:06:51.575Z,10.60
2022-11-15T10:09:23.896Z,9.80
2022-11-15T10:11:51.270Z,10.27
2022-11-15T10:14:26.230Z,10.53
2022-11-15T10:17:11.586Z,10.60
2022-11-15T10:19:38.595Z,10.17
2022-11-15T10:22:15.053Z,10.17
2022-11-15T10:24:44.041Z,10.17
2022-11-15T10:27:12.954Z,10.07
2022-11-15T10:29:44.674Z,10.20
2022-11-15T10:32:13.249Z,10.30
2022-11-15T10:34:40.320Z,9.77
2022-11-15T10:37:07.427Z,9.60
2022-11-15T10:39:34.783Z,9.07
2022-11-15T10:42:27.762Z,9.87
2022-11-15T10:44:55.211Z,10.53
2022-11-15T10:47:36.062Z,9.77
2022-11-15T10:50:26.960Z,9.23
2022-11-15T10:52:54.069Z,9.80
2022-11-15T10:55:26.538Z,10.40
2022-11-15T10:57:54.960Z,9.13
2022-11-15T11:00:22.078Z,9.40
2022-11-15T11:02:58.559Z,9.60
2022-11-15T11:05:42.089Z,9.50
2022-11-15T11:08:12.859Z,9.63
2022-11-15T11:11:01.568Z,9.70
2022-11-15T11:13:30.750Z,9.63
2022-11-15T11:16:15.998Z,10.00
2022-11-15T11:18:43.035Z,9.70
2022-11-15T11:21:12.813Z,9.70
2022-11-15T11:23:52.132Z,10.10
2022-11-15T11:26:19.201Z,9.77
2022-11-15T11:28:46.247Z,9.87
2022-11-15T11:31:30.946Z,9.27
2022-11-15T11:34:02.844Z,9.33
2022-11-15T11:36:40.173Z,9.93
2022-11-15T11:39:13.284Z,9.33
2022-11-15T11:41:52.186Z,9.17
2022-11-15T11:44:34.476Z,9.63
2022-11-15T11:47:22.319Z,9.50
2022-11-15T11:49:53.756Z,9.00
2022-11-15T11:52:27.942Z,9.47
2022-11-15T11:55:00.917Z,9.40
2022-11-15T11:57:35.116Z,9.30
2022-11-15T12:00:05.256Z,9.67
2022-11-15T12:02:35.576Z,9.17
2022-11-15T12:05:11.281Z,9.60
2022-11-15T12:07:39.702Z,9.70
2022-11-15T12:10:09.804Z,10.10
2022-11-15T12:12:40.011Z,9.70
2022-11-15T12:15:16.294Z,9.90
2022-11-15T12:17:43.477Z,8.90
2022-11-15T12:20:21.133Z,9.20
2022-11-15T12:22:48.179Z,9.70
2022-11-15T12:25:20.989Z,9.20
2022-11-15T12:27:50.649Z,8.93
2022-11-15T12:30:22.551Z,9.10
2022-11-15T12:32:52.228Z,8.90
2022-11-15T12:35:36.643Z,10.23
2022-11-15T12:38:03.754Z,9.13
2022-11-15T12:40:32.369Z,9.70
2022-11-15T12:42:59.423Z,8.90
2022-11-15T12:45:29.594Z,9.07
2022-11-15T12:48:13.493Z,9.47
2022-11-15T12:50:54.043Z,9.00
2022-11-15T12:53:30.338Z,9.33
2022-11-15T12:56:06.190Z,8.93
2022-11-15T12:58:51.884Z,9.30
2022-11-15T13:01:34.334Z,8.63
2022-11-15T13:04:10.668Z,9.50
2022-11-15T13:06:45.491Z,9.87
2022-11-15T13:09:27.872Z,9.13
2022-11-15T13:11:55.240Z,9.10
2022-11-15T13:14:51.390Z,9.13
2022-11-15T13:17:21.503Z,9.47
2022-11-15T13:19:49.714Z,8.93
2022-11-15T13:22:35.324Z,9.57
2022-11-15T13:25:02.928Z,9.20
2022-11-15T13:27:30.290Z,9.33
2022-11-15T13:29:57.409Z,9.57
2022-11-15T13:32:24.519Z,10.37
2022-11-15T13:34:53.782Z,8.77
2022-11-15T13:37:23.964Z,9.30
2022-11-15T13:39:51.451Z,9.07
2022-11-15T13:42:22.014Z,9.37
2022-11-15T13:44:58.366Z,9.57
2022-11-15T13:47:30.348Z,9.57
2022-11-15T13:50:02.090Z,9.43
2022-11-15T13:52:33.202Z,8.97
2022-11-15T13:55:00.356Z,9.53
2022-11-15T13:57:42.763Z,8.97
2022-11-15T14:00:31.012Z,9.53
2022-11-15T14:02:58.655Z,9.73
2022-11-15T14:05:26.415Z,9.23
2022-11-15T14:07:57.768Z,9.00
2022-11-15T14:10:27.907Z,9.40
2022-11-15T14:12:54.973Z,9.03
2022-11-15T14:15:35.831Z,9.47
2022-11-15T14:18:03.091Z,9.60
2022-11-15T14:20:35.120Z,9.93
2022-11-15T14:23:03.884Z,10.00
2022-11-15T14:25:32.078Z,10.03
2022-11-15T14:28:11.262Z,9.67
2022-11-15T14:30:39.789Z,10.50
2022-11-15T14:33:21.368Z,9.60
2022-11-15T14:35:48.445Z,9.83
2022-11-15T14:38:15.583Z,9.80
2022-11-15T14:40:43.390Z,9.60
2022-11-15T14:43:12.129Z,10.77
2022-11-15T14:45:39.373Z,9.83
2022-11-15T14:48:06.789Z,10.23
2022-11-15T14:50:34.202Z,9.80
2022-11-15T14:53:01.409Z,9.43
2022-11-15T14:55:29.857Z,10.03
2022-11-15T14:57:57.240Z,9.47
2022-11-15T15:00:24.306Z,9.80
2022-11-15T15:02:53.363Z,10.17
2022-11-15T15:05:21.888Z,9.90
2022-11-15T15:07:49.520Z,9.40
2022-11-15T15:10:38.862Z,9.47
2022-11-15T15:13:05.139Z,10.27
2022-11-15T15:15:36.080Z,9.67
2022-11-15T15:18:03.752Z,10.20
2022-11-15T15:20:30.995Z,9.67
2022-11-15T15:22:58.937Z,9.90
2022-11-15T15:25:27.807Z,9.43
2022-11-15T15:27:55.984Z,9.77
2022-11-15T15:30:26.431Z,10.33
2022-11-15T15:32:54.785Z,10.00
2022-11-15T15:35:21.897Z,9.93
2022-11-15T15:37:49.678Z,10.53
2022-11-15T15:40:18.380Z,10.17
2022-11-15T15:42:45.843Z,9.90
2022-11-15T15:45:13.394Z,10.00
2022-11-15T15:47:40.876Z,9.40
2022-11-15T15:50:25.375Z,9.97
2022-11-15T15:52:53.415Z,9.73
2022-11-15T15:55:20.615Z,8.97
2022-11-15T15:57:48.058Z,9.87
2022-11-15T16:00:15.619Z,9.87
2022-11-15T16:02:43.169Z,9.67
2022-11-15T16:05:11.015Z,10.30
2022-11-15T16:07:38.400Z,9.20
2022-11-15T16:10:17.759Z,9.33
2022-11-15T16:12:45.761Z,9.07
2022-11-15T16:15:12.923Z,9.63
2022-11-15T16:17:41.976Z,9.60
2022-11-15T16:20:16.258Z,10.00
2022-11-15T16:22:43.323Z,9.93
2022-11-15T16:25:10.406Z,9.60
2022-11-15T16:27:39.469Z,9.40
2022-11-15T16:30:06.877Z,9.33
2022-11-15T16:32:34.133Z,9.43
2022-11-15T16:35:01.353Z,8.47
2022-11-15T16:37:28.433Z,8.93
2022-11-15T16:39:59.873Z,9.33
2022-11-15T16:42:28.137Z,9.27
2022-11-15T16:44:55.198Z,9.70
2022-11-15T16:47:22.827Z,8.77
2022-11-15T16:49:49.895Z,8.87
2022-11-15T16:52:21.163Z,9.17
2022-11-15T16:54:48.672Z,9.50
2022-11-15T16:57:16.463Z,9.63
2022-11-15T16:59:43.555Z,9.77
2022-11-15T17:02:13.472Z,10.23
2022-11-15T17:04:40.600Z,10.23
2022-11-15T17:07:07.670Z,10.00
2022-11-15T17:09:34.968Z,10.07
2022-11-15T17:12:02.189Z,9.73
2022-11-15T17:14:29.800Z,10.07
2022-11-15T17:16:56.909Z,10.27
2022-11-15T17:19:23.995Z,10.90
2022-11-15T17:21:51.097Z,9.93
2022-11-15T17:24:20.728Z,11.17
2022-11-15T17:26:47.818Z,10.40
2022-11-15T17:29:14.896Z,10.43
2022-11-15T17:31:42.024Z,10.00
2022-11-15T17:34:09.147Z,10.70
2022-11-15T17:36:36.613Z,10.50
2022-11-15T17:39:04.670Z,10.17
2022-11-15T17:41:31.781Z,10.17
2022-11-15T17:43:59.967Z,9.93
2022-11-15T17:46:27.700Z,10.17
2022-11-15T17:48:55.473Z,9.87
2022-11-15T17:51:23.995Z,9.40
2022-11-15T17:53:51.443Z,9.73
2022-11-15T17:56:19.747Z,11.83
2022-11-15T17:58:50.516Z,14.03
2022-11-15T18:01:22.788Z,11.73
2022-11-15T18:03:50.004Z,10.17
2022-11-15T18:06:17.760Z,9.87
2022-11-15T18:08:45.625Z,9.93
2022-11-15T18:11:17.183Z,10.10
2022-11-15T18:13:50.972Z,9.80
2022-11-15T18:16:20.464Z,10.07
2022-11-15T18:18:47.561Z,10.43
2022-11-15T18:21:19.876Z,10.60
2022-11-15T18:23:47.185Z,10.20
2022-11-15T18:26:15.135Z,9.97
2022-11-15T18:28:43.420Z,10.13
2022-11-15T18:31:17.802Z,10.27
2022-11-15T18:33:45.295Z,10.23
2022-11-15T18:36:13.560Z,9.80
2022-11-15T18:38:40.743Z,10.37
2022-11-15T18:41:09.218Z,10.33
2022-11-15T18:43:36.482Z,10.33
2022-11-15T18:46:08.921Z,10.07
2022-11-15T18:48:37.246Z,10.53
2022-11-15T18:51:05.679Z,9.90
2022-11-15T18:53:33.262Z,9.77
2022-11-15T18:56:10.539Z,10.07
2022-11-15T18:58:41.714Z,9.30
2022-11-15T19:01:10.935Z,9.30
2022-11-15T19:03:39.403Z,9.13
2022-11-15T19:06:08.163Z,9.23
2022-11-15T19:08:36.134Z,9.27
2022-11-15T19:11:04.664Z,9.17
2022-11-15T19:13:32.136Z,8.43
2022-11-15T19:16:03.429Z,8.90
2022-11-15T19:18:31.145Z,7.80
2022-11-15T19:21:02.891Z,8.10
2022-11-15T19:23:30.547Z,8.20
2022-11-15T19:25:59.154Z,7.47
2022-11-15T19:28:27.116Z,8.33
2022-11-15T19:30:54.529Z,8.47
2022-11-15T19:33:27.550Z,7.57
2022-11-15T19:36:00.498Z,7.40
2022-11-15T19:38:27.743Z,7.97
2022-11-15T19:40:58.718Z,7.83
2022-11-15T19:43:25.778Z,8.10
2022-11-15T19:46:01.943Z,7.23
2022-11-15T19:48:30.547Z,7.90
2022-11-15T19:51:01.268Z,7.07
2022-11-15T19:53:34.415Z,7.27
2022-11-15T19:56:03.399Z,7.53
2022-11-15T19:58:30.646Z,7.47
2022-11-15T20:01:02.412Z,7.13
2022-11-15T20:03:33.419Z,7.43
2022-11-15T20:06:04.914Z,6.97
2022-11-15T20:08:32.519Z,6.87
2022-11-15T20:11:00.719Z,6.30
2022-11-15T20:13:28.292Z,7.07
2022-11-15T20:15:55.629Z,6.10
2022-11-15T20:18:23.239Z,5.73
2022-11-15T20:20:50.558Z,5.77
2022-11-15T20:23:18.113Z,6.27
2022-11-15T20:25:46.394Z,5.87
2022-11-15T20:28:17.524Z,5.67
2022-11-15T20:30:45.378Z,5.23
2022-11-15T20:33:13.796Z,6.10
2022-11-15T20:35:41.674Z,5.80
2022-11-15T20:38:08.829Z,5.73
2022-11-15T20:40:36.024Z,6.10
2022-11-15T20:43:03.136Z,6.10
2022-11-15T20:45:30.242Z,5.83
2022-11-15T20:47:58.038Z,5.70
2022-11-15T20:50:42.052Z,5.60
2022-11-15T20:53:11.034Z,5.90
2022-11-15T20:55:41.897Z,5.80
2022-11-15T20:58:09.642Z,5.70
2022-11-15T21:00:37.242Z,4.97
2022-11-15T21:03:07.962Z,5.70
2022-11-15T21:05:38.916Z,5.27
2022-11-15T21:08:06.152Z,5.53
2022-11-15T21:10:52.303Z,4.40
2022-11-15T21:13:19.491Z,5.53
2022-11-15T21:15:47.087Z,5.40
2022-11-15T21:18:14.193Z,4.83
2022-11-15T21:20:41.388Z,4.83
2022-11-15T21:23:08.617Z,4.97
2022-11-15T21:25:35.819Z,5.37
2022-11-15T21:28:02.946Z,4.87
2022-11-15T21:30:30.207Z,5.10
2022-11-15T21:32:57.268Z,5.10
2022-11-15T21:35:24.457Z,4.73
2022-11-15T21:37:56.505Z,5.37
2022-11-15T21:40:24.134Z,4.67
2022-11-15T21:42:51.200Z,4.70
2022-11-15T21:45:18.251Z,4.43
2022-11-15T21:47:46.551Z,4.97
2022-11-15T21:50:14.339Z,5.17
2022-11-15T21:52:41.861Z,4.83
2022-11-15T21:55:09.433Z,5.37
2022-11-15T21:57:36.470Z,4.83
2022-11-15T22:00:22.639Z,5.03
2022-11-15T22:02:49.673Z,4.93
2022-11-15T22:05:16.773Z,5.13
2022-11-15T22:07:43.895Z,4.87
2022-11-15T22:10:11.094Z,4.77
2022-11-15T22:12:38.217Z,4.90
2022-11-15T22:15:05.394Z,5.03
2022-11-15T22:17:51.290Z,4.53
2022-11-15T22:23:05.634Z,4.80
2022-11-15T22:25:33.044Z,4.73
2022-11-15T22:28:00.153Z,4.97
2022-11-15T22:30:27.310Z,5.17
2022-11-15T22:32:54.380Z,4.50
2022-11-15T22:35:21.491Z,5.07
2022-11-15T22:37:48.624Z,4.80
2022-11-15T22:40:15.780Z,4.77
2022-11-15T22:42:42.867Z,5.30
2022-11-15T22:45:10.229Z,4.70
2022-11-15T22:47:37.315Z,4.80
2022-11-15T22:50:06.396Z,4.90
2022-11-15T22:52:33.511Z,4.77
2022-11-15T22:55:00.617Z,4.67
2022-11-15T22:57:27.714Z,5.00
2022-11-15T22:59:55.042Z,4.27
2022-11-15T23:02:22.132Z,4.67
2022-11-15T23:04:49.248Z,4.73
2022-11-15T23:07:16.451Z,4.97
2022-11-15T23:09:46.535Z,4.00
2022-11-15T23:12:36.493Z,4.00
2022-11-15T23:15:03.630Z,4.37
2022-11-15T23:17:31.438Z,3.90
2022-11-15T23:20:01.083Z,4.50
2022-11-15T23:22:47.624Z,4.53
2022-11-15T23:25:14.746Z,4.10
2022-11-15T23:27:42.104Z,4.30
2022-11-15T23:30:28.082Z,4.40
2022-11-15T23:33:14.564Z,4.00
2022-11-15T23:35:41.642Z,4.37
2022-11-15T23:38:08.772Z,3.83
2022-11-15T23:40:35.857Z,4.10
2022-11-15T23:43:02.959Z,4.13
2022-11-15T23:45:30.095Z,3.80
2022-11-15T23:48:01.444Z,3.90
2022-11-15T23:50:28.981Z,3.93
2022-11-15T23:52:56.065Z,4.20
2022-11-15T23:55:23.160Z,4.17
2022-11-15T23:57:50.268Z,3.70
